sensor_id;sensor_type;location;lat;lon;timestamp;P1;durP1;ratioP1;P2;durP2;ratioP2
35745;SDS011;21870;42.812;74.628;2023-03-14T00:02:07;11.75;;;10.52;;
35745;SDS011;21870;42.812;74.628;2023-03-14T00:04:35;11.68;;;10.57;;
35745;SDS011;21870;42.812;74.628;2023-03-14T00:07:01;11.35;;;9.43;;
35745;SDS011;21870;42.812;74.628;2023-03-14T00:09:28;10.90;;;10.00;;
35745;SDS011;21870;42.812;74.628;2023-03-14T00:11:55;11.73;;;10.65;;
35745;SDS011;21870;42.812;74.628;2023-03-14T00:14:22;13.35;;;11.88;;
35745;SDS011;21870;42.812;74.628;2023-03-14T00:16:48;14.60;;;12.98;;
35745;SDS011;21870;42.812;74.628;2023-03-14T00:19:15;12.85;;;11.65;;
35745;SDS011;21870;42.812;74.628;2023-03-14T00:21:41;11.45;;;10.30;;
35745;SDS011;21870;42.812;74.628;2023-03-14T00:24:07;11.90;;;10.52;;
35745;SDS011;21870;42.812;74.628;2023-03-14T00:26:34;11.68;;;10.52;;
35745;SDS011;21870;42.812;74.628;2023-03-14T00:29:00;12.80;;;11.30;;
35745;SDS011;21870;42.812;74.628;2023-03-14T00:31:26;20.38;;;18.48;;
35745;SDS011;21870;42.812;74.628;2023-03-14T00:33:52;47.35;;;42.25;;
35745;SDS011;21870;42.812;74.628;2023-03-14T00:36:19;14.25;;;12.80;;
35745;SDS011;21870;42.812;74.628;2023-03-14T00:38:47;14.65;;;11.82;;
35745;SDS011;21870;42.812;74.628;2023-03-14T00:41:17;12.35;;;11.15;;
35745;SDS011;21870;42.812;74.628;2023-03-14T00:43:45;12.70;;;11.60;;
35745;SDS011;21870;42.812;74.628;2023-03-14T00:46:11;12.10;;;11.00;;
35745;SDS011;21870;42.812;74.628;2023-03-14T00:48:38;13.18;;;11.88;;
35745;SDS011;21870;42.812;74.628;2023-03-14T00:51:04;14.00;;;12.55;;
35745;SDS011;21870;42.812;74.628;2023-03-14T00:53:37;14.30;;;12.90;;
35745;SDS011;21870;42.812;74.628;2023-03-14T00:56:08;14.05;;;12.55;;
35745;SDS011;21870;42.812;74.628;2023-03-14T00:58:36;15.10;;;13.13;;
35745;SDS011;21870;42.812;74.628;2023-03-14T01:01:09;14.73;;;13.23;;
35745;SDS011;21870;42.812;74.628;2023-03-14T01:03:37;15.23;;;13.75;;
35745;SDS011;21870;42.812;74.628;2023-03-14T01:06:23;16.77;;;13.02;;
35745;SDS011;21870;42.812;74.628;2023-03-14T01:08:51;14.45;;;12.98;;
35745;SDS011;21870;42.812;74.628;2023-03-14T01:11:19;14.25;;;12.48;;
35745;SDS011;21870;42.812;74.628;2023-03-14T01:13:47;33.47;;;14.98;;
35745;SDS011;21870;42.812;74.628;2023-03-14T01:16:13;16.25;;;13.40;;
35745;SDS011;21870;42.812;74.628;2023-03-14T01:18:41;23.08;;;14.48;;
35745;SDS011;21870;42.812;74.628;2023-03-14T01:21:18;25.60;;;18.13;;
35745;SDS011;21870;42.812;74.628;2023-03-14T01:23:47;18.27;;;16.50;;
35745;SDS011;21870;42.812;74.628;2023-03-14T01:26:15;16.92;;;15.05;;
35745;SDS011;21870;42.812;74.628;2023-03-14T01:28:44;19.88;;;15.30;;
35745;SDS011;21870;42.812;74.628;2023-03-14T01:31:10;18.48;;;16.25;;
35745;SDS011;21870;42.812;74.628;2023-03-14T01:33:37;17.00;;;15.10;;
35745;SDS011;21870;42.812;74.628;2023-03-14T01:36:05;19.25;;;15.25;;
35745;SDS011;21870;42.812;74.628;2023-03-14T01:38:32;18.23;;;16.33;;
35745;SDS011;21870;42.812;74.628;2023-03-14T01:40:59;24.23;;;19.88;;
35745;SDS011;21870;42.812;74.628;2023-03-14T01:43:26;30.02;;;21.92;;
35745;SDS011;21870;42.812;74.628;2023-03-14T01:48:32;18.52;;;14.88;;
35745;SDS011;21870;42.812;74.628;2023-03-14T01:51:04;16.40;;;14.20;;
35745;SDS011;21870;42.812;74.628;2023-03-14T01:53:35;15.25;;;13.65;;
35745;SDS011;21870;42.812;74.628;2023-03-14T01:56:02;23.17;;;16.88;;
35745;SDS011;21870;42.812;74.628;2023-03-14T01:58:29;13.93;;;12.52;;
35745;SDS011;21870;42.812;74.628;2023-03-14T02:00:59;13.38;;;12.13;;
35745;SDS011;21870;42.812;74.628;2023-03-14T02:03:27;13.50;;;12.05;;
35745;SDS011;21870;42.812;74.628;2023-03-14T02:05:56;15.25;;;12.98;;
35745;SDS011;21870;42.812;74.628;2023-03-14T02:08:28;17.42;;;13.55;;
35745;SDS011;21870;42.812;74.628;2023-03-14T02:10:56;15.50;;;14.00;;
35745;SDS011;21870;42.812;74.628;2023-03-14T02:13:22;15.82;;;14.43;;
35745;SDS011;21870;42.812;74.628;2023-03-14T02:15:55;67.60;;;60.97;;
35745;SDS011;21870;42.812;74.628;2023-03-14T02:18:21;35.92;;;31.55;;
35745;SDS011;21870;42.812;74.628;2023-03-14T02:23:13;47.80;;;43.25;;
35745;SDS011;21870;42.812;74.628;2023-03-14T02:25:55;25.58;;;23.00;;
35745;SDS011;21870;42.812;74.628;2023-03-14T02:28:34;21.17;;;17.52;;
35745;SDS011;21870;42.812;74.628;2023-03-14T02:31:01;18.45;;;16.50;;
35745;SDS011;21870;42.812;74.628;2023-03-14T02:33:27;27.15;;;21.83;;
35745;SDS011;21870;42.812;74.628;2023-03-14T02:35:55;22.95;;;19.85;;
35745;SDS011;21870;42.812;74.628;2023-03-14T02:38:36;31.17;;;22.30;;
35745;SDS011;21870;42.812;74.628;2023-03-14T02:41:32;31.23;;;24.17;;
35745;SDS011;21870;42.812;74.628;2023-03-14T02:43:59;30.05;;;23.45;;
35745;SDS011;21870;42.812;74.628;2023-03-14T02:46:25;32.53;;;22.70;;
35745;SDS011;21870;42.812;74.628;2023-03-14T02:48:52;27.13;;;21.02;;
35745;SDS011;21870;42.812;74.628;2023-03-14T02:51:30;26.15;;;23.35;;
35745;SDS011;21870;42.812;74.628;2023-03-14T02:53:57;24.63;;;21.10;;
35745;SDS011;21870;42.812;74.628;2023-03-14T02:56:23;30.40;;;20.65;;
35745;SDS011;21870;42.812;74.628;2023-03-14T02:58:49;30.00;;;18.65;;
35745;SDS011;21870;42.812;74.628;2023-03-14T03:01:16;20.80;;;17.67;;
35745;SDS011;21870;42.812;74.628;2023-03-14T03:03:43;24.83;;;19.63;;
35745;SDS011;21870;42.812;74.628;2023-03-14T03:06:09;29.92;;;21.35;;
35745;SDS011;21870;42.812;74.628;2023-03-14T03:08:35;27.25;;;20.55;;
35745;SDS011;21870;42.812;74.628;2023-03-14T03:11:02;23.10;;;19.20;;
35745;SDS011;21870;42.812;74.628;2023-03-14T03:13:28;24.60;;;19.58;;
35745;SDS011;21870;42.812;74.628;2023-03-14T03:15:57;34.17;;;21.52;;
35745;SDS011;21870;42.812;74.628;2023-03-14T03:18:23;39.22;;;23.55;;
35745;SDS011;21870;42.812;74.628;2023-03-14T03:20:49;42.17;;;26.52;;
35745;SDS011;21870;42.812;74.628;2023-03-14T03:23:15;33.05;;;23.33;;
35745;SDS011;21870;42.812;74.628;2023-03-14T03:25:41;37.55;;;24.02;;
35745;SDS011;21870;42.812;74.628;2023-03-14T03:28:11;37.60;;;24.17;;
35745;SDS011;21870;42.812;74.628;2023-03-14T03:30:41;33.22;;;23.77;;
35745;SDS011;21870;42.812;74.628;2023-03-14T03:33:08;34.13;;;22.60;;
35745;SDS011;21870;42.812;74.628;2023-03-14T03:35:34;33.88;;;22.65;;
35745;SDS011;21870;42.812;74.628;2023-03-14T03:38:06;27.88;;;23.45;;
35745;SDS011;21870;42.812;74.628;2023-03-14T03:40:33;31.80;;;24.77;;
35745;SDS011;21870;42.812;74.628;2023-03-14T03:42:59;33.00;;;25.75;;
35745;SDS011;21870;42.812;74.628;2023-03-14T03:45:25;29.60;;;24.67;;
35745;SDS011;21870;42.812;74.628;2023-03-14T03:47:51;31.35;;;26.05;;
35745;SDS011;21870;42.812;74.628;2023-03-14T03:50:18;30.98;;;24.80;;
35745;SDS011;21870;42.812;74.628;2023-03-14T03:52:46;26.20;;;23.25;;
35745;SDS011;21870;42.812;74.628;2023-03-14T03:55:12;29.92;;;24.13;;
35745;SDS011;21870;42.812;74.628;2023-03-14T03:57:38;31.17;;;24.75;;
35745;SDS011;21870;42.812;74.628;2023-03-14T04:00:05;30.73;;;26.40;;
35745;SDS011;21870;42.812;74.628;2023-03-14T04:02:34;30.50;;;22.73;;
35745;SDS011;21870;42.812;74.628;2023-03-14T04:05:00;28.92;;;23.30;;
35745;SDS011;21870;42.812;74.628;2023-03-14T04:07:26;23.38;;;21.00;;
35745;SDS011;21870;42.812;74.628;2023-03-14T04:09:52;26.35;;;20.50;;
35745;SDS011;21870;42.812;74.628;2023-03-14T04:12:18;21.70;;;19.42;;
35745;SDS011;21870;42.812;74.628;2023-03-14T04:14:45;20.70;;;16.02;;
35745;SDS011;21870;42.812;74.628;2023-03-14T04:17:11;22.33;;;18.40;;
35745;SDS011;21870;42.812;74.628;2023-03-14T04:19:37;21.38;;;17.98;;
35745;SDS011;21870;42.812;74.628;2023-03-14T04:22:03;21.52;;;19.17;;
35745;SDS011;21870;42.812;74.628;2023-03-14T04:24:29;27.38;;;19.65;;
35745;SDS011;21870;42.812;74.628;2023-03-14T04:26:55;31.67;;;18.92;;
35745;SDS011;21870;42.812;74.628;2023-03-14T04:29:22;19.88;;;17.85;;
35745;SDS011;21870;42.812;74.628;2023-03-14T04:31:48;21.13;;;18.50;;
35745;SDS011;21870;42.812;74.628;2023-03-14T04:34:14;19.27;;;17.15;;
35745;SDS011;21870;42.812;74.628;2023-03-14T04:36:40;22.50;;;18.38;;
35745;SDS011;21870;42.812;74.628;2023-03-14T04:39:09;22.00;;;18.23;;
35745;SDS011;21870;42.812;74.628;2023-03-14T04:41:35;19.30;;;17.33;;
35745;SDS011;21870;42.812;74.628;2023-03-14T04:44:01;25.17;;;18.67;;
35745;SDS011;21870;42.812;74.628;2023-03-14T04:46:27;19.02;;;16.77;;
35745;SDS011;21870;42.812;74.628;2023-03-14T04:48:53;18.70;;;16.90;;
35745;SDS011;21870;42.812;74.628;2023-03-14T04:51:21;19.25;;;16.30;;
35745;SDS011;21870;42.812;74.628;2023-03-14T04:53:48;18.65;;;16.67;;
35745;SDS011;21870;42.812;74.628;2023-03-14T04:56:14;18.60;;;16.90;;
35745;SDS011;21870;42.812;74.628;2023-03-14T04:58:40;18.17;;;16.25;;
35745;SDS011;21870;42.812;74.628;2023-03-14T05:01:06;20.50;;;16.70;;
35745;SDS011;21870;42.812;74.628;2023-03-14T05:03:32;17.90;;;16.27;;
35745;SDS011;21870;42.812;74.628;2023-03-14T05:06:01;19.50;;;16.40;;
35745;SDS011;21870;42.812;74.628;2023-03-14T05:08:27;21.73;;;17.48;;
35745;SDS011;21870;42.812;74.628;2023-03-14T05:10:56;20.85;;;16.95;;
35745;SDS011;21870;42.812;74.628;2023-03-14T05:13:23;19.58;;;17.80;;
35745;SDS011;21870;42.812;74.628;2023-03-14T05:15:50;21.60;;;18.92;;
35745;SDS011;21870;42.812;74.628;2023-03-14T05:18:16;22.00;;;20.08;;
35745;SDS011;21870;42.812;74.628;2023-03-14T05:20:43;24.83;;;21.50;;
35745;SDS011;21870;42.812;74.628;2023-03-14T05:23:09;25.08;;;21.63;;
35745;SDS011;21870;42.812;74.628;2023-03-14T05:25:35;24.13;;;21.52;;
35745;SDS011;21870;42.812;74.628;2023-03-14T05:28:02;26.23;;;22.42;;
35745;SDS011;21870;42.812;74.628;2023-03-14T05:30:28;22.67;;;20.50;;
35745;SDS011;21870;42.812;74.628;2023-03-14T05:32:56;33.63;;;23.00;;
35745;SDS011;21870;42.812;74.628;2023-03-14T05:35:22;28.17;;;20.98;;
35745;SDS011;21870;42.812;74.628;2023-03-14T05:37:48;24.42;;;21.58;;
35745;SDS011;21870;42.812;74.628;2023-03-14T05:40:14;26.58;;;21.20;;
35745;SDS011;21870;42.812;74.628;2023-03-14T05:42:40;24.92;;;21.15;;
35745;SDS011;21870;42.812;74.628;2023-03-14T05:45:06;23.60;;;21.17;;
35745;SDS011;21870;42.812;74.628;2023-03-14T05:47:33;26.75;;;22.05;;
35745;SDS011;21870;42.812;74.628;2023-03-14T05:49:59;26.52;;;21.45;;
35745;SDS011;21870;42.812;74.628;2023-03-14T05:52:25;25.08;;;22.40;;
35745;SDS011;21870;42.812;74.628;2023-03-14T05:54:51;23.48;;;20.98;;
35745;SDS011;21870;42.812;74.628;2023-03-14T05:57:17;23.02;;;20.67;;
35745;SDS011;21870;42.812;74.628;2023-03-14T05:59:43;24.60;;;20.15;;
35745;SDS011;21870;42.812;74.628;2023-03-14T06:02:09;24.33;;;21.80;;
35745;SDS011;21870;42.812;74.628;2023-03-14T06:04:35;21.10;;;19.10;;
35745;SDS011;21870;42.812;74.628;2023-03-14T06:07:01;23.13;;;18.83;;
35745;SDS011;21870;42.812;74.628;2023-03-14T06:09:27;22.88;;;20.45;;
35745;SDS011;21870;42.812;74.628;2023-03-14T06:11:53;21.80;;;19.20;;
35745;SDS011;21870;42.812;74.628;2023-03-14T06:14:19;22.38;;;20.08;;
35745;SDS011;21870;42.812;74.628;2023-03-14T06:16:45;24.92;;;20.42;;
35745;SDS011;21870;42.812;74.628;2023-03-14T06:19:14;25.23;;;19.70;;
35745;SDS011;21870;42.812;74.628;2023-03-14T06:21:40;25.05;;;21.13;;
35745;SDS011;21870;42.812;74.628;2023-03-14T06:24:06;19.17;;;17.13;;
35745;SDS011;21870;42.812;74.628;2023-03-14T06:26:32;19.42;;;16.23;;
35745;SDS011;21870;42.812;74.628;2023-03-14T06:28:58;17.77;;;16.08;;
35745;SDS011;21870;42.812;74.628;2023-03-14T06:31:29;18.35;;;16.42;;
35745;SDS011;21870;42.812;74.628;2023-03-14T06:33:55;20.30;;;18.05;;
35745;SDS011;21870;42.812;74.628;2023-03-14T06:36:22;18.80;;;16.55;;
35745;SDS011;21870;42.812;74.628;2023-03-14T06:38:48;18.33;;;16.55;;
35745;SDS011;21870;42.812;74.628;2023-03-14T06:41:14;17.65;;;15.95;;
35745;SDS011;21870;42.812;74.628;2023-03-14T06:43:40;17.40;;;15.80;;
35745;SDS011;21870;42.812;74.628;2023-03-14T06:46:06;23.70;;;17.65;;
35745;SDS011;21870;42.812;74.628;2023-03-14T06:48:32;20.88;;;18.38;;
35745;SDS011;21870;42.812;74.628;2023-03-14T06:50:58;27.48;;;17.98;;
35745;SDS011;21870;42.812;74.628;2023-03-14T06:53:24;26.33;;;18.00;;
35745;SDS011;21870;42.812;74.628;2023-03-14T06:55:50;18.45;;;14.95;;
35745;SDS011;21870;42.812;74.628;2023-03-14T06:58:16;20.45;;;14.45;;
35745;SDS011;21870;42.812;74.628;2023-03-14T07:00:43;20.42;;;16.73;;
35745;SDS011;21870;42.812;74.628;2023-03-14T07:03:09;18.58;;;16.73;;
35745;SDS011;21870;42.812;74.628;2023-03-14T07:05:35;23.40;;;16.40;;
35745;SDS011;21870;42.812;74.628;2023-03-14T07:08:01;22.55;;;16.27;;
35745;SDS011;21870;42.812;74.628;2023-03-14T07:10:27;20.40;;;15.55;;
35745;SDS011;21870;42.812;74.628;2023-03-14T07:12:53;17.70;;;14.90;;
35745;SDS011;21870;42.812;74.628;2023-03-14T07:15:20;16.90;;;15.07;;
35745;SDS011;21870;42.812;74.628;2023-03-14T07:17:46;16.38;;;14.02;;
35745;SDS011;21870;42.812;74.628;2023-03-14T07:20:13;23.90;;;14.82;;
35745;SDS011;21870;42.812;74.628;2023-03-14T07:22:39;21.58;;;13.82;;
35745;SDS011;21870;42.812;74.628;2023-03-14T07:25:05;18.00;;;15.48;;
35745;SDS011;21870;42.812;74.628;2023-03-14T07:27:31;15.10;;;12.32;;
35745;SDS011;21870;42.812;74.628;2023-03-14T07:29:57;14.15;;;11.95;;
35745;SDS011;21870;42.812;74.628;2023-03-14T07:32:23;16.33;;;13.73;;
35745;SDS011;21870;42.812;74.628;2023-03-14T07:34:50;24.15;;;14.80;;
35745;SDS011;21870;42.812;74.628;2023-03-14T07:37:16;25.02;;;15.30;;
35745;SDS011;21870;42.812;74.628;2023-03-14T07:39:42;22.83;;;16.27;;
35745;SDS011;21870;42.812;74.628;2023-03-14T07:42:08;25.45;;;20.75;;
35745;SDS011;21870;42.812;74.628;2023-03-14T07:44:34;30.67;;;22.40;;
35745;SDS011;21870;42.812;74.628;2023-03-14T07:47:00;35.55;;;23.30;;
35745;SDS011;21870;42.812;74.628;2023-03-14T07:49:26;33.28;;;26.02;;
35745;SDS011;21870;42.812;74.628;2023-03-14T07:51:52;29.95;;;24.40;;
35745;SDS011;21870;42.812;74.628;2023-03-14T07:54:18;41.78;;;26.95;;
35745;SDS011;21870;42.812;74.628;2023-03-14T07:56:44;43.25;;;28.23;;
35745;SDS011;21870;42.812;74.628;2023-03-14T07:59:10;35.92;;;26.13;;
35745;SDS011;21870;42.812;74.628;2023-03-14T08:01:37;43.85;;;27.88;;
35745;SDS011;21870;42.812;74.628;2023-03-14T08:04:03;45.08;;;27.08;;
35745;SDS011;21870;42.812;74.628;2023-03-14T08:06:29;31.13;;;26.45;;
35745;SDS011;21870;42.812;74.628;2023-03-14T08:08:55;34.83;;;25.40;;
35745;SDS011;21870;42.812;74.628;2023-03-14T08:11:21;38.13;;;24.80;;
35745;SDS011;21870;42.812;74.628;2023-03-14T08:13:47;32.03;;;26.40;;
35745;SDS011;21870;42.812;74.628;2023-03-14T08:16:17;32.28;;;24.98;;
35745;SDS011;21870;42.812;74.628;2023-03-14T08:18:44;33.88;;;23.48;;
35745;SDS011;21870;42.812;74.628;2023-03-14T08:21:10;38.60;;;24.00;;
35745;SDS011;21870;42.812;74.628;2023-03-14T08:23:37;27.17;;;22.70;;
35745;SDS011;21870;42.812;74.628;2023-03-14T08:26:03;36.47;;;25.00;;
35745;SDS011;21870;42.812;74.628;2023-03-14T08:28:29;36.08;;;24.83;;
35745;SDS011;21870;42.812;74.628;2023-03-14T08:30:58;32.35;;;23.52;;
35745;SDS011;21870;42.812;74.628;2023-03-14T08:33:26;29.95;;;24.92;;
35745;SDS011;21870;42.812;74.628;2023-03-14T08:35:54;30.73;;;23.90;;
35745;SDS011;21870;42.812;74.628;2023-03-14T08:38:21;30.05;;;20.95;;
35745;SDS011;21870;42.812;74.628;2023-03-14T08:40:47;28.58;;;23.05;;
35745;SDS011;21870;42.812;74.628;2023-03-14T08:43:15;23.55;;;20.70;;
35745;SDS011;21870;42.812;74.628;2023-03-14T08:45:41;24.00;;;19.65;;
35745;SDS011;21870;42.812;74.628;2023-03-14T08:48:07;27.52;;;19.13;;
35745;SDS011;21870;42.812;74.628;2023-03-14T08:50:33;21.02;;;18.58;;
35745;SDS011;21870;42.812;74.628;2023-03-14T08:52:59;23.00;;;17.67;;
35745;SDS011;21870;42.812;74.628;2023-03-14T08:55:28;24.00;;;19.30;;
35745;SDS011;21870;42.812;74.628;2023-03-14T08:57:54;25.67;;;18.73;;
35745;SDS011;21870;42.812;74.628;2023-03-14T09:00:21;26.13;;;17.88;;
35745;SDS011;21870;42.812;74.628;2023-03-14T09:02:47;23.58;;;19.38;;
35745;SDS011;21870;42.812;74.628;2023-03-14T09:05:13;27.67;;;19.25;;
35745;SDS011;21870;42.812;74.628;2023-03-14T09:07:39;28.42;;;19.55;;
35745;SDS011;21870;42.812;74.628;2023-03-14T09:10:06;24.25;;;20.25;;
35745;SDS011;21870;42.812;74.628;2023-03-14T09:12:33;22.23;;;19.55;;
35745;SDS011;21870;42.812;74.628;2023-03-14T09:15:00;25.15;;;19.95;;
35745;SDS011;21870;42.812;74.628;2023-03-14T09:17:26;21.70;;;18.77;;
35745;SDS011;21870;42.812;74.628;2023-03-14T09:19:52;23.60;;;21.27;;
35745;SDS011;21870;42.812;74.628;2023-03-14T09:23:49;38.10;;;22.60;;
35745;SDS011;21870;42.812;74.628;2023-03-14T09:26:15;28.80;;;22.02;;
35745;SDS011;21870;42.812;74.628;2023-03-14T09:28:41;27.63;;;20.50;;
35745;SDS011;21870;42.812;74.628;2023-03-14T09:31:08;23.48;;;20.98;;
35745;SDS011;21870;42.812;74.628;2023-03-14T09:33:36;32.75;;;22.67;;
35745;SDS011;21870;42.812;74.628;2023-03-14T09:36:02;24.58;;;22.02;;
35745;SDS011;21870;42.812;74.628;2023-03-14T09:38:29;30.33;;;23.23;;
35745;SDS011;21870;42.812;74.628;2023-03-14T09:40:58;40.78;;;25.63;;
35745;SDS011;21870;42.812;74.628;2023-03-14T09:43:26;29.10;;;22.48;;
35745;SDS011;21870;42.812;74.628;2023-03-14T09:45:57;25.20;;;22.48;;
35745;SDS011;21870;42.812;74.628;2023-03-14T09:48:27;33.70;;;22.35;;
35745;SDS011;21870;42.812;74.628;2023-03-14T09:50:55;26.42;;;21.45;;
35745;SDS011;21870;42.812;74.628;2023-03-14T09:53:25;25.77;;;23.08;;
35745;SDS011;21870;42.812;74.628;2023-03-14T09:55:54;25.70;;;23.08;;
35745;SDS011;21870;42.812;74.628;2023-03-14T09:58:23;35.47;;;23.25;;
35745;SDS011;21870;42.812;74.628;2023-03-14T10:00:50;31.67;;;24.08;;
35745;SDS011;21870;42.812;74.628;2023-03-14T10:03:33;28.35;;;23.75;;
35745;SDS011;21870;42.812;74.628;2023-03-14T10:06:01;28.25;;;23.60;;
35745;SDS011;21870;42.812;74.628;2023-03-14T10:08:29;28.65;;;25.40;;
35745;SDS011;21870;42.812;74.628;2023-03-14T10:10:55;28.13;;;25.10;;
35745;SDS011;21870;42.812;74.628;2023-03-14T10:13:22;35.33;;;24.33;;
35745;SDS011;21870;42.812;74.628;2023-03-14T10:15:53;29.58;;;25.48;;
35745;SDS011;21870;42.812;74.628;2023-03-14T10:18:19;27.85;;;24.33;;
35745;SDS011;21870;42.812;74.628;2023-03-14T10:20:48;30.75;;;23.90;;
35745;SDS011;21870;42.812;74.628;2023-03-14T10:25:42;28.45;;;23.42;;
35745;SDS011;21870;42.812;74.628;2023-03-14T10:28:23;25.27;;;22.58;;
35745;SDS011;21870;42.812;74.628;2023-03-14T10:30:51;30.70;;;23.65;;
35745;SDS011;21870;42.812;74.628;2023-03-14T10:33:21;27.50;;;24.60;;
35745;SDS011;21870;42.812;74.628;2023-03-14T10:38:44;35.15;;;24.90;;
35745;SDS011;21870;42.812;74.628;2023-03-14T10:41:44;26.75;;;22.67;;
35745;SDS011;21870;42.812;74.628;2023-03-14T10:44:03;28.63;;;22.63;;
35745;SDS011;21870;42.812;74.628;2023-03-14T10:46:38;26.63;;;22.52;;
35745;SDS011;21870;42.812;74.628;2023-03-14T10:49:05;27.55;;;22.13;;
35745;SDS011;21870;42.812;74.628;2023-03-14T10:51:31;23.85;;;21.35;;
35745;SDS011;21870;42.812;74.628;2023-03-14T10:54:12;24.13;;;21.55;;
35745;SDS011;21870;42.812;74.628;2023-03-14T10:56:44;27.70;;;20.83;;
35745;SDS011;21870;42.812;74.628;2023-03-14T10:59:14;24.20;;;21.33;;
35745;SDS011;21870;42.812;74.628;2023-03-14T11:07:26;24.48;;;19.52;;
35745;SDS011;21870;42.812;74.628;2023-03-14T11:12:55;22.10;;;20.10;;
35745;SDS011;21870;42.812;74.628;2023-03-14T11:15:33;37.97;;;20.25;;
35745;SDS011;21870;42.812;74.628;2023-03-14T11:21:02;26.73;;;18.17;;
35745;SDS011;21870;42.812;74.628;2023-03-14T11:23:56;21.33;;;17.92;;
35745;SDS011;21870;42.812;74.628;2023-03-14T11:27:12;43.88;;;19.33;;
35745;SDS011;21870;42.812;74.628;2023-03-14T11:29:41;21.25;;;17.88;;
35745;SDS011;21870;42.812;74.628;2023-03-14T11:32:23;19.02;;;15.95;;
35745;SDS011;21870;42.812;74.628;2023-03-14T11:34:57;24.80;;;17.85;;
35745;SDS011;21870;42.812;74.628;2023-03-14T11:37:29;16.50;;;14.52;;
35745;SDS011;21870;42.812;74.628;2023-03-14T11:40:23;23.50;;;14.00;;
35745;SDS011;21870;42.812;74.628;2023-03-14T11:43:09;23.08;;;14.38;;
35745;SDS011;21870;42.812;74.628;2023-03-14T11:45:45;16.25;;;12.88;;
35745;SDS011;21870;42.812;74.628;2023-03-14T11:50:59;13.50;;;12.15;;
35745;SDS011;21870;42.812;74.628;2023-03-14T11:53:36;16.52;;;12.68;;
35745;SDS011;21870;42.812;74.628;2023-03-14T11:56:16;17.20;;;13.90;;
35745;SDS011;21870;42.812;74.628;2023-03-14T11:58:51;17.63;;;13.68;;
35745;SDS011;21870;42.812;74.628;2023-03-14T12:01:27;17.33;;;12.02;;
35745;SDS011;21870;42.812;74.628;2023-03-14T12:04:13;20.13;;;12.82;;
35745;SDS011;21870;42.812;74.628;2023-03-14T12:06:51;23.58;;;13.48;;
35745;SDS011;21870;42.812;74.628;2023-03-14T12:09:18;18.23;;;13.75;;
35745;SDS011;21870;42.812;74.628;2023-03-14T12:11:53;23.48;;;13.90;;
35745;SDS011;21870;42.812;74.628;2023-03-14T12:16:54;19.10;;;11.82;;
35745;SDS011;21870;42.812;74.628;2023-03-14T12:19:40;33.05;;;13.35;;
35745;SDS011;21870;42.812;74.628;2023-03-14T12:22:28;17.48;;;11.82;;
35745;SDS011;21870;42.812;74.628;2023-03-14T12:24:57;22.70;;;13.35;;
35745;SDS011;21870;42.812;74.628;2023-03-14T12:27:41;29.50;;;12.90;;
35745;SDS011;21870;42.812;74.628;2023-03-14T12:30:28;18.50;;;11.73;;
35745;SDS011;21870;42.812;74.628;2023-03-14T12:35:59;17.52;;;11.23;;
35745;SDS011;21870;42.812;74.628;2023-03-14T12:41:03;27.73;;;12.60;;
35745;SDS011;21870;42.812;74.628;2023-03-14T12:43:46;15.98;;;13.32;;
35745;SDS011;21870;42.812;74.628;2023-03-14T13:00:02;24.98;;;14.32;;
35745;SDS011;21870;42.812;74.628;2023-03-14T13:02:49;21.40;;;13.80;;
35745;SDS011;21870;42.812;74.628;2023-03-14T13:05:17;42.80;;;15.88;;
35745;SDS011;21870;42.812;74.628;2023-03-14T13:15:29;34.25;;;16.23;;
35745;SDS011;21870;42.812;74.628;2023-03-14T13:18:18;26.45;;;15.68;;
35745;SDS011;21870;42.812;74.628;2023-03-14T13:23:37;30.73;;;17.25;;
35745;SDS011;21870;42.812;74.628;2023-03-14T13:26:05;29.30;;;16.45;;
35745;SDS011;21870;42.812;74.628;2023-03-14T13:28:38;40.45;;;17.17;;
35745;SDS011;21870;42.812;74.628;2023-03-14T13:31:04;32.17;;;16.77;;
35745;SDS011;21870;42.812;74.628;2023-03-14T13:33:32;28.58;;;17.60;;
35745;SDS011;21870;42.812;74.628;2023-03-14T13:36:04;25.75;;;16.38;;
35745;SDS011;21870;42.812;74.628;2023-03-14T13:38:35;22.40;;;16.15;;
35745;SDS011;21870;42.812;74.628;2023-03-14T13:41:05;29.77;;;17.50;;
35745;SDS011;21870;42.812;74.628;2023-03-14T13:43:34;21.13;;;16.85;;
35745;SDS011;21870;42.812;74.628;2023-03-14T13:48:33;30.35;;;18.17;;
35745;SDS011;21870;42.812;74.628;2023-03-14T13:51:10;32.13;;;19.20;;
35745;SDS011;21870;42.812;74.628;2023-03-14T13:53:43;32.67;;;17.55;;
35745;SDS011;21870;42.812;74.628;2023-03-14T13:56:10;26.10;;;19.50;;
35745;SDS011;21870;42.812;74.628;2023-03-14T13:58:37;29.48;;;24.10;;
35745;SDS011;21870;42.812;74.628;2023-03-14T14:01:18;27.23;;;20.77;;
35745;SDS011;21870;42.812;74.628;2023-03-14T14:03:49;19.00;;;16.80;;
35745;SDS011;21870;42.812;74.628;2023-03-14T14:06:34;18.95;;;16.92;;
35745;SDS011;21870;42.812;74.628;2023-03-14T14:09:12;20.35;;;16.52;;
35745;SDS011;21870;42.812;74.628;2023-03-14T14:15:01;20.23;;;15.65;;
35745;SDS011;21870;42.812;74.628;2023-03-14T14:17:16;18.23;;;16.27;;
35745;SDS011;21870;42.812;74.628;2023-03-14T14:19:46;20.45;;;16.52;;
35745;SDS011;21870;42.812;74.628;2023-03-14T14:22:13;20.77;;;16.48;;
35745;SDS011;21870;42.812;74.628;2023-03-14T14:24:39;22.90;;;17.67;;
35745;SDS011;21870;42.812;74.628;2023-03-14T14:29:42;18.10;;;16.20;;
35745;SDS011;21870;42.812;74.628;2023-03-14T14:34:42;32.92;;;29.50;;
35745;SDS011;21870;42.812;74.628;2023-03-14T14:37:22;39.95;;;34.10;;
35745;SDS011;21870;42.812;74.628;2023-03-14T14:39:54;42.33;;;36.78;;
35745;SDS011;21870;42.812;74.628;2023-03-14T14:42:35;41.47;;;33.00;;
35745;SDS011;21870;42.812;74.628;2023-03-14T14:45:07;34.78;;;30.75;;
35745;SDS011;21870;42.812;74.628;2023-03-14T14:47:53;33.10;;;29.70;;
35745;SDS011;21870;42.812;74.628;2023-03-14T14:55:44;43.63;;;34.30;;
35745;SDS011;21870;42.812;74.628;2023-03-14T14:58:19;45.58;;;36.28;;
35745;SDS011;21870;42.812;74.628;2023-03-14T15:01:30;59.55;;;50.85;;
35745;SDS011;21870;42.812;74.628;2023-03-14T15:03:46;68.20;;;51.85;;
35745;SDS011;21870;42.812;74.628;2023-03-14T15:06:14;49.10;;;41.90;;
35745;SDS011;21870;42.812;74.628;2023-03-14T15:08:46;67.35;;;58.97;;
35745;SDS011;21870;42.812;74.628;2023-03-14T15:11:24;53.25;;;43.25;;
35745;SDS011;21870;42.812;74.628;2023-03-14T15:13:51;49.03;;;41.03;;
35745;SDS011;21870;42.812;74.628;2023-03-14T15:16:19;47.95;;;42.25;;
35745;SDS011;21870;42.812;74.628;2023-03-14T15:18:49;46.88;;;41.50;;
35745;SDS011;21870;42.812;74.628;2023-03-14T15:21:20;53.67;;;43.88;;
35745;SDS011;21870;42.812;74.628;2023-03-14T15:23:48;66.93;;;50.80;;
35745;SDS011;21870;42.812;74.628;2023-03-14T15:26:15;49.28;;;41.88;;
35745;SDS011;21870;42.812;74.628;2023-03-14T15:28:43;54.65;;;42.28;;
35745;SDS011;21870;42.812;74.628;2023-03-14T15:31:11;54.92;;;41.47;;
35745;SDS011;21870;42.812;74.628;2023-03-14T15:33:42;57.58;;;45.20;;
35745;SDS011;21870;42.812;74.628;2023-03-14T15:36:15;56.47;;;45.92;;